Time;durP1;ratioP1;P1;durP2;ratioP2;P2;SDS_P1;SDS_P2;PMS_P1;PMS_P2;Temp;Humidity;BMP_temperature;BMP_pressure;BME280_temperature;BME280_humidity;BME280_pressure;Samples;Min_cycle;Max_cycle;Signal;HPM_P1;HPM_P2
2022/01/11 09:38:03;;;;;;;0.40;0.40;;;3.40;99.90;;;;;;4937163;29;20426;-87
2022/01/11 09:40:30;;;;;;;0.30;0.30;;;3.50;99.90;;;;;;4936545;29;20458;-86
2022/01/11 09:42:57;;;;;;;0.50;0.30;;;3.50;99.90;;;;;;4936937;29;20471;-86
2022/01/11 09:45:23;;;;;;;0.40;0.40;;;3.60;99.90;;;;;;4937009;29;20439;-87
2022/01/11 09:47:50;;;;;;;1.27;0.90;;;3.60;99.90;;;;;;4936962;29;20440;-88
2022/01/11 09:50:18;;;;;;;0.43;0.43;;;3.70;99.90;;;;;;4936867;29;20442;-87
2022/01/11 09:52:45;;;;;;;0.53;0.53;;;3.80;99.90;;;;;;4936810;29;20435;-89
2022/01/11 09:55:15;;;;;;;0.30;0.20;;;3.70;99.90;;;;;;4937300;29;20486;-88
2022/01/11 09:57:42;;;;;;;0.30;0.30;;;3.80;99.90;;;;;;4937158;29;20440;-89
2022/01/11 10:00:12;;;;;;;0.30;0.30;;;3.80;99.90;;;;;;4937058;29;20474;-87
2022/01/11 10:02:39;;;;;;;0.30;0.30;;;3.80;99.90;;;;;;4936894;29;20447;-87
2022/01/11 10:05:08;;;;;;;0.30;0.30;;;3.80;99.90;;;;;;4936887;29;20884;-87
2022/01/11 10:07:40;;;;;;;1.33;1.23;;;3.90;99.90;;;;;;4936599;29;20905;-86
2022/01/11 10:10:13;;;;;;;0.97;0.60;;;4.00;99.90;;;;;;4936781;29;20554;-86
2022/01/11 10:12:48;;;;;;;0.30;0.30;;;4.00;99.90;;;;;;4936579;29;20463;-87
2022/01/11 10:15:15;;;;;;;0.70;0.70;;;3.90;99.90;;;;;;4936879;29;20475;-87
2022/01/11 10:17:44;;;;;;;1.13;0.87;;;4.00;99.90;;;;;;4936768;29;20924;-89
2022/01/11 10:20:13;;;;;;;0.30;0.20;;;4.00;99.90;;;;;;4936559;29;20823;-87
2022/01/11 10:22:48;;;;;;;1.13;1.03;;;4.10;99.90;;;;;;4936220;29;20431;-87
2022/01/11 10:25:17;;;;;;;0.50;0.40;;;4.10;99.90;;;;;;4936545;29;20439;-87
2022/01/11 10:27:46;;;;;;;0.73;0.73;;;4.20;99.90;;;;;;4936514;29;20439;-88
2022/01/11 10:30:16;;;;;;;0.43;0.43;;;4.30;99.90;;;;;;4936475;29;20450;-86
2022/01/11 10:32:45;;;;;;;0.50;0.50;;;4.40;99.90;;;;;;4936184;29;20498;-89
2022/01/11 10:35:17;;;;;;;0.87;0.87;;;4.30;99.90;;;;;;4936950;29;20479;-86
2022/01/11 10:37:46;;;;;;;0.30;0.20;;;4.30;99.90;;;;;;4936348;29;20443;-87
2022/01/11 10:40:18;;;;;;;0.40;0.40;;;4.40;99.90;;;;;;4936456;29;20416;-87
2022/01/11 10:42:48;;;;;;;0.30;0.30;;;4.40;99.90;;;;;;4936308;29;20444;-88
2022/01/11 10:45:17;;;;;;;0.83;0.83;;;4.50;99.90;;;;;;4936291;29;20498;-88
2022/01/11 10:47:47;;;;;;;1.13;0.40;;;4.50;99.90;;;;;;4936274;29;20427;-87
2022/01/11 10:50:18;;;;;;;0.67;0.67;;;4.50;99.90;;;;;;4936222;29;20522;-90
2022/01/11 10:52:45;;;;;;;0.83;0.60;;;4.60;99.90;;;;;;4936610;29;20450;-87
2022/01/11 10:55:15;;;;;;;0.30;0.30;;;4.60;99.90;;;;;;4936131;29;20471;-87
2022/01/11 10:57:44;;;;;;;0.50;0.40;;;4.70;99.90;;;;;;4936180;29;20439;-88
2022/01/11 11:00:21;;;;;;;0.60;0.60;;;4.80;99.90;;;;;;4936145;29;20443;-87
2022/01/11 11:02:53;;;;;;;1.33;0.70;;;4.80;99.90;;;;;;4936297;29;20471;-88
2022/01/11 11:05:24;;;;;;;0.40;0.40;;;4.90;99.90;;;;;;4936142;29;20447;-87
2022/01/11 11:07:57;;;;;;;0.80;0.80;;;5.00;99.90;;;;;;4935903;29;20424;-89
2022/01/11 11:10:43;;;;;;;0.30;0.30;;;5.00;99.90;;;;;;4936107;29;20446;-87
2022/01/11 11:13:18;;;;;;;1.93;1.83;;;5.10;99.90;;;;;;4936277;29;20471;-88
2022/01/11 11:15:45;;;;;;;1.37;1.00;;;5.30;99.90;;;;;;4935737;29;20482;-88
2022/01/11 11:18:33;;;;;;;0.87;0.87;;;5.40;99.90;;;;;;4935777;29;20419;-87
2022/01/11 11:21:15;;;;;;;0.70;0.60;;;5.40;99.90;;;;;;4936157;29;20491;-88
2022/01/11 11:23:42;;;;;;;0.43;0.43;;;5.40;99.90;;;;;;4935948;29;20475;-90
2022/01/11 11:26:09;;;;;;;1.43;0.97;;;5.40;99.90;;;;;;4936165;29;20432;-89
2022/01/11 11:28:38;;;;;;;0.30;0.30;;;5.30;99.90;;;;;;4940161;29;20442;-90
2022/01/11 11:31:05;;;;;;;0.60;0.53;;;5.20;99.90;;;;;;4935920;29;20442;-89
2022/01/11 11:33:34;;;;;;;0.30;0.30;;;5.20;99.90;;;;;;4935518;29;21029;-88
2022/01/11 11:36:01;;;;;;;1.23;0.77;;;5.20;99.90;;;;;;4935833;29;20514;-87
2022/01/11 11:38:31;;;;;;;0.30;0.30;;;5.00;99.90;;;;;;4935882;29;20439;-89
2022/01/11 11:41:00;;;;;;;0.30;0.30;;;5.00;99.90;;;;;;4936198;29;20469;-89
2022/01/11 11:43:27;;;;;;;0.40;0.40;;;5.00;99.90;;;;;;4935989;29;20475;-89
2022/01/11 11:45:55;;;;;;;0.30;0.30;;;4.90;99.90;;;;;;4936096;29;20452;-88
2022/01/11 11:48:24;;;;;;;0.30;0.30;;;5.00;99.90;;;;;;4936072;29;20440;-87
2022/01/11 11:50:53;;;;;;;1.83;0.47;;;4.90;99.90;;;;;;4936357;29;20482;-90
2022/01/11 11:53:23;;;;;;;0.30;0.30;;;4.90;99.90;;;;;;4937998;29;20479;-87
2022/01/11 11:55:50;;;;;;;0.67;0.67;;;4.80;99.90;;;;;;4939170;29;20986;-87
2022/01/11 11:58:20;;;;;;;0.30;0.30;;;4.90;99.90;;;;;;4939374;29;20442;-88
2022/01/11 12:00:47;;;;;;;0.30;0.20;;;4.90;99.90;;;;;;4939422;29;20420;-89
2022/01/11 12:03:24;;;;;;;0.30;0.20;;;4.80;99.90;;;;;;4939231;29;20505;-88
2022/01/11 12:05:52;;;;;;;0.77;0.70;;;4.80;99.90;;;;;;4939312;29;20427;-89
2022/01/11 12:08:31;;;;;;;0.30;0.30;;;4.80;99.90;;;;;;4939330;29;20460;-88
2022/01/11 12:11:02;;;;;;;0.30;0.30;;;4.80;99.90;;;;;;4939836;29;20454;-89
2022/01/11 12:13:49;;;;;;;0.30;0.30;;;4.90;99.90;;;;;;4939221;29;20888;-88
2022/01/11 12:16:39;;;;;;;0.30;0.30;;;4.80;99.90;;;;;;4938726;29;20478;-88
2022/01/11 12:19:14;;;;;;;0.30;0.20;;;4.80;99.90;;;;;;4938990;29;20863;-87
2022/01/11 12:21:44;;;;;;;0.30;0.30;;;4.70;99.90;;;;;;4938556;29;20966;-89
2022/01/11 12:24:12;;;;;;;0.30;0.30;;;4.60;99.90;;;;;;4938583;29;20466;-89
2022/01/11 12:26:39;;;;;;;0.30;0.30;;;4.60;99.90;;;;;;4939000;29;20515;-89
2022/01/11 12:29:24;;;;;;;1.13;0.70;;;4.60;99.90;;;;;;4938837;29;20899;-90
2022/01/11 12:31:54;;;;;;;0.30;0.30;;;4.80;99.90;;;;;;4938898;29;20447;-88
2022/01/11 12:34:49;;;;;;;0.50;0.50;;;4.80;99.90;;;;;;4938192;29;20495;-90
2022/01/11 12:37:36;;;;;;;0.30;0.20;;;4.80;99.90;;;;;;4938539;29;20486;-88
2022/01/11 12:40:29;;;;;;;0.60;0.60;;;4.70;99.90;;;;;;4937152;29;20459;-87
2022/01/11 12:43:02;;;;;;;0.30;0.27;;;4.70;99.90;;;;;;4938711;29;20502;-87
2022/01/11 12:45:55;;;;;;;3.23;1.43;;;4.70;99.90;;;;;;4938885;29;20451;-88
2022/01/11 12:48:59;;;;;;;1.00;0.47;;;4.70;99.90;;;;;;4938123;29;20435;-88
2022/01/11 12:51:33;;;;;;;0.30;0.20;;;4.70;99.90;;;;;;4938075;29;20442;-90
2022/01/11 12:54:17;;;;;;;0.30;0.30;;;4.70;99.90;;;;;;4938497;29;20546;-87
2022/01/11 12:56:46;;;;;;;0.40;0.40;;;4.80;99.90;;;;;;4938266;29;20467;-88
2022/01/11 12:59:12;;;;;;;0.30;0.30;;;4.70;99.90;;;;;;4938204;29;20839;-89
2022/01/11 13:01:40;;;;;;;0.30;0.30;;;4.50;99.90;;;;;;4938320;29;20456;-88
2022/01/11 13:04:07;;;;;;;0.30;0.30;;;4.20;99.90;;;;;;4936985;29;20556;-87
2022/01/11 13:06:38;;;;;;;0.30;0.30;;;4.10;99.90;;;;;;4937971;29;20452;-88
2022/01/11 13:09:08;;;;;;;0.30;0.30;;;4.10;99.90;;;;;;4938203;29;20454;-87
2022/01/11 13:11:36;;;;;;;0.30;0.30;;;4.10;99.90;;;;;;4938556;29;20466;-88
2022/01/11 13:14:19;;;;;;;0.30;0.30;;;4.20;99.90;;;;;;4937868;29;20483;-87
2022/01/11 13:16:49;;;;;;;0.30;0.20;;;4.40;99.90;;;;;;4938396;29;20562;-89
2022/01/11 13:19:16;;;;;;;0.40;0.40;;;4.50;99.90;;;;;;4937887;29;20462;-89
2022/01/11 13:21:45;;;;;;;0.30;0.20;;;4.70;99.90;;;;;;4937598;29;20938;-88
2022/01/11 13:24:24;;;;;;;1.90;0.60;;;4.80;99.90;;;;;;4937642;29;20535;-88
2022/01/11 13:26:54;;;;;;;1.03;0.97;;;4.70;99.90;;;;;;4937741;29;20511;-89
2022/01/11 13:29:22;;;;;;;0.30;0.30;;;4.70;99.90;;;;;;4937681;29;20507;-88
2022/01/11 13:31:52;;;;;;;0.40;0.40;;;4.70;99.90;;;;;;4937716;29;20416;-87
2022/01/11 13:34:22;;;;;;;0.73;0.73;;;4.70;99.90;;;;;;4937016;29;20873;-88
2022/01/11 13:36:53;;;;;;;0.30;0.30;;;4.60;99.90;;;;;;4937855;29;20483;-89
2022/01/11 13:39:24;;;;;;;0.30;0.20;;;4.50;99.90;;;;;;4937259;29;20420;-88
2022/01/11 13:55:11;;;;;;;0.30;0.27;;;4.30;99.90;;;;;;5421217;23;20500;-79
2022/01/11 13:57:45;;;;;;;0.40;0.30;;;4.30;99.90;;;;;;4920657;29;20476;-76
2022/01/11 14:00:15;;;;;;;0.30;0.30;;;4.30;99.90;;;;;;4920870;29;20448;-76
2022/01/11 14:05:19;;;;;;;0.30;0.20;;;4.30;99.90;;;;;;5229699;23;20276;-79
2022/01/11 14:07:53;;;;;;;0.30;0.30;;;4.20;99.90;;;;;;4921601;29;20448;-79
2022/01/11 14:10:28;;;;;;;0.30;0.30;;;4.10;99.90;;;;;;4921183;29;20531;-80
2022/01/11 14:12:55;;;;;;;0.30;0.30;;;4.00;99.90;;;;;;4921981;29;20482;-82
2022/01/11 14:15:25;;;;;;;0.93;0.77;;;4.00;99.90;;;;;;4913352;29;20516;-79
2022/01/11 14:17:52;;;;;;;0.50;0.40;;;4.00;99.90;;;;;;4921173;29;20452;-80
2022/01/11 15:06:47;;;;;;;0.30;0.30;;;3.70;99.90;;;;;;4902398;29;20473;-79
2022/01/11 15:09:16;;;;;;;0.40;0.40;;;3.60;99.90;;;;;;4903907;29;20441;-79
2022/01/11 15:11:45;;;;;;;0.30;0.30;;;3.60;99.90;;;;;;4903978;29;20448;-79
2022/01/11 15:14:14;;;;;;;0.50;0.50;;;3.50;99.90;;;;;;4900921;29;20873;-80
2022/01/11 15:16:43;;;;;;;0.30;0.30;;;3.50;99.90;;;;;;4920520;29;20480;-79
2022/01/11 15:19:10;;;;;;;0.30;0.20;;;3.40;99.90;;;;;;4920809;29;20424;-80
2022/01/11 15:21:38;;;;;;;0.30;0.30;;;3.40;99.90;;;;;;4927816;29;20483;-81
2022/01/11 15:24:09;;;;;;;0.30;0.30;;;3.50;99.90;;;;;;4931904;29;20484;-81
2022/01/11 15:26:38;;;;;;;0.50;0.30;;;3.40;99.90;;;;;;4933985;29;20440;-81
2022/01/11 15:29:06;;;;;;;0.40;0.40;;;3.40;99.90;;;;;;4931012;29;20440;-80
2022/01/11 15:31:34;;;;;;;0.30;0.20;;;3.30;99.90;;;;;;4925918;29;20938;-80
2022/01/11 15:34:00;;;;;;;0.30;0.23;;;3.40;99.90;;;;;;4927505;29;20471;-80
2022/01/11 15:36:28;;;;;;;0.30;0.30;;;3.40;99.90;;;;;;4929261;29;20482;-80
2022/01/11 15:38:55;;;;;;;0.87;0.87;;;3.40;99.90;;;;;;4929612;29;20861;-80
2022/01/11 15:41:26;;;;;;;0.30;0.30;;;3.40;99.90;;;;;;4929761;29;20447;-81
2022/01/11 15:43:54;;;;;;;0.50;0.50;;;3.30;99.90;;;;;;4929513;29;20547;-80
2022/01/11 15:46:21;;;;;;;0.60;0.60;;;3.40;99.90;;;;;;4928908;29;20455;-80
2022/01/11 15:48:50;;;;;;;0.30;0.30;;;3.30;99.90;;;;;;4928379;29;20443;-80
2022/01/11 15:51:18;;;;;;;0.30;0.30;;;3.40;99.90;;;;;;4929509;29;20436;-80
2022/01/11 15:53:45;;;;;;;0.30;0.30;;;3.40;99.90;;;;;;4928450;29;20464;-80
2022/01/11 15:56:12;;;;;;;0.30;0.20;;;3.30;99.90;;;;;;4925917;29;20472;-80
2022/01/11 15:58:40;;;;;;;0.30;0.30;;;3.30;99.90;;;;;;4924021;29;20487;-79
2022/01/11 16:01:07;;;;;;;0.30;0.30;;;3.20;99.90;;;;;;4926269;29;20779;-79
2022/01/11 16:03:35;;;;;;;0.43;0.40;;;3.30;99.90;;;;;;4923301;29;20451;-79
2022/01/11 16:06:02;;;;;;;0.30;0.20;;;3.10;99.90;;;;;;4923840;29;20480;-79
2022/01/11 16:08:29;;;;;;;0.40;0.33;;;3.10;99.90;;;;;;4923445;29;20421;-80
2022/01/11 16:10:57;;;;;;;0.30;0.20;;;3.10;99.90;;;;;;4923176;29;20767;-79
2022/01/11 16:13:25;;;;;;;0.40;0.30;;;3.10;99.90;;;;;;4921789;29;20984;-79
2022/01/11 16:15:54;;;;;;;0.30;0.30;;;3.10;99.90;;;;;;4925053;29;20448;-80
2022/01/11 16:18:21;;;;;;;0.30;0.30;;;3.00;99.90;;;;;;4922453;29;20463;-80
2022/01/11 16:20:48;;;;;;;0.60;0.60;;;3.00;99.90;;;;;;4922572;29;20439;-79
2022/01/11 17:12:39;;;;;;;0.30;0.30;;;2.80;99.90;;;;;;5493881;23;20542;-78
2022/01/11 17:15:08;;;;;;;0.30;0.30;;;2.80;99.90;;;;;;4918672;29;20952;-78
2022/01/11 17:17:35;;;;;;;0.40;0.37;;;2.80;99.90;;;;;;4918993;29;20476;-78
2022/01/11 17:20:03;;;;;;;0.30;0.30;;;2.70;99.90;;;;;;4918815;29;20444;-78
2022/01/11 17:22:30;;;;;;;0.30;0.30;;;2.70;99.90;;;;;;4918841;29;20425;-78
2022/01/11 17:24:57;;;;;;;0.40;0.40;;;2.80;99.90;;;;;;4918525;29;20853;-78
2022/01/11 17:27:25;;;;;;;0.50;0.50;;;2.80;99.90;;;;;;4918292;29;20436;-78
2022/01/11 17:29:53;;;;;;;0.30;0.30;;;2.80;99.90;;;;;;4918653;29;20443;-78
2022/01/11 17:32:20;;;;;;;0.30;0.30;;;2.70;99.90;;;;;;4918630;29;20508;-78
2022/01/11 17:34:47;;;;;;;0.60;0.40;;;2.80;99.90;;;;;;4918863;29;20988;-78
2022/01/11 17:37:18;;;;;;;1.00;0.83;;;2.70;99.90;;;;;;4918424;29;20603;-78
2022/01/11 17:39:44;;;;;;;0.50;0.50;;;2.70;99.90;;;;;;4918455;29;20539;-78
2022/01/11 17:42:12;;;;;;;0.30;0.20;;;2.60;99.90;;;;;;4918333;29;20589;-78
2022/01/11 17:44:39;;;;;;;0.30;0.30;;;2.70;99.90;;;;;;4918269;29;20459;-78
2022/01/11 17:47:07;;;;;;;0.40;0.40;;;2.80;99.90;;;;;;4918312;29;20429;-78
2022/01/11 17:49:35;;;;;;;0.30;0.30;;;2.80;99.90;;;;;;4918094;29;20440;-78
2022/01/11 17:52:01;;;;;;;0.40;0.40;;;2.90;99.90;;;;;;4917600;29;20451;-78
2022/01/11 17:54:30;;;;;;;0.40;0.30;;;2.90;99.90;;;;;;4918174;29;20480;-81
2022/01/11 17:56:57;;;;;;;0.40;0.40;;;2.90;99.90;;;;;;4918086;29;20480;-81
2022/01/11 17:59:24;;;;;;;0.60;0.60;;;2.80;99.90;;;;;;4918064;29;20436;-81
2022/01/11 18:01:52;;;;;;;0.30;0.30;;;2.70;99.90;;;;;;4918083;29;20468;-81
2022/01/11 18:04:21;;;;;;;0.30;0.30;;;2.70;99.90;;;;;;4918194;29;20480;-81
2022/01/11 18:06:47;;;;;;;0.40;0.40;;;2.60;99.90;;;;;;4918289;29;20453;-81
2022/01/11 18:09:14;;;;;;;0.40;0.40;;;2.60;99.90;;;;;;4917896;29;20440;-81
2022/01/11 18:11:41;;;;;;;0.30;0.20;;;2.60;99.90;;;;;;4917716;29;20436;-81
2022/01/11 18:14:10;;;;;;;0.50;0.50;;;2.60;99.90;;;;;;4917781;29;20487;-81
2022/01/11 18:16:39;;;;;;;0.67;0.67;;;2.50;99.90;;;;;;4918241;29;20444;-79
2022/01/11 18:19:06;;;;;;;1.13;1.13;;;2.50;99.90;;;;;;4918550;29;20423;-79
2022/01/11 18:21:34;;;;;;;0.40;0.40;;;2.40;99.90;;;;;;4918606;29;20782;-80
2022/01/11 18:24:02;;;;;;;0.30;0.30;;;2.50;99.90;;;;;;4917587;29;20506;-81
2022/01/11 18:26:31;;;;;;;0.30;0.30;;;2.40;99.90;;;;;;4918429;29;20437;-81
2022/01/11 18:28:57;;;;;;;0.60;0.50;;;2.50;99.90;;;;;;4917640;29;20447;-81
2022/01/11 18:31:26;;;;;;;0.40;0.30;;;2.40;99.90;;;;;;4917627;29;20444;-81
2022/01/11 18:33:53;;;;;;;0.43;0.37;;;2.40;99.90;;;;;;4917239;29;20475;-81
2022/01/11 18:36:20;;;;;;;0.40;0.40;;;2.40;99.90;;;;;;4917520;29;20436;-81
2022/01/11 18:38:48;;;;;;;0.30;0.27;;;2.40;99.90;;;;;;4917428;29;20571;-79
2022/01/11 18:41:15;;;;;;;0.47;0.47;;;2.50;99.90;;;;;;4917397;29;20445;-81
2022/01/11 18:43:42;;;;;;;0.30;0.20;;;2.50;99.90;;;;;;4917412;29;20476;-81
2022/01/11 18:46:12;;;;;;;0.30;0.30;;;2.40;99.90;;;;;;4918171;29;20447;-82
2022/01/11 18:48:39;;;;;;;0.30;0.30;;;2.50;99.90;;;;;;4917270;29;20452;-81
2022/01/11 18:51:05;;;;;;;0.40;0.40;;;2.40;99.90;;;;;;4917318;29;20418;-81
2022/01/11 18:53:33;;;;;;;0.30;0.30;;;2.40;99.90;;;;;;4916931;29;20456;-81
2022/01/11 18:56:02;;;;;;;0.67;0.67;;;2.40;99.90;;;;;;4917268;29;20495;-81
2022/01/11 18:58:28;;;;;;;0.30;0.30;;;2.50;99.90;;;;;;4916940;29;20468;-81
2022/01/11 19:00:57;;;;;;;0.30;0.30;;;2.50;99.90;;;;;;4916943;29;20441;-81
2022/01/11 19:03:24;;;;;;;0.30;0.30;;;2.40;99.90;;;;;;4916470;29;20476;-81
2022/01/11 19:05:53;;;;;;;0.30;0.30;;;2.40;99.90;;;;;;4916842;29;20427;-80
2022/01/11 19:08:20;;;;;;;0.30;0.30;;;2.30;99.90;;;;;;4917123;29;20507;-80
2022/01/11 19:10:47;;;;;;;0.37;0.37;;;2.40;99.90;;;;;;4917093;29;20444;-80
2022/01/11 19:13:15;;;;;;;0.30;0.30;;;2.40;99.90;;;;;;4916635;29;20495;-80
2022/01/11 19:15:42;;;;;;;0.70;0.70;;;2.30;99.90;;;;;;4916805;29;20910;-80
2022/01/11 19:18:12;;;;;;;0.30;0.20;;;2.30;99.90;;;;;;4916962;29;20495;-80
2022/01/11 19:20:39;;;;;;;0.30;0.20;;;2.30;99.90;;;;;;4916727;29;20445;-80
2022/01/11 19:23:06;;;;;;;0.30;0.20;;;2.30;99.90;;;;;;4916657;29;20992;-80
2022/01/11 19:25:35;;;;;;;0.30;0.30;;;2.30;99.90;;;;;;4916644;29;20463;-80
2022/01/11 19:28:03;;;;;;;0.30;0.30;;;2.30;99.90;;;;;;4916824;29;20507;-81
2022/01/11 19:30:32;;;;;;;0.53;0.50;;;2.30;99.90;;;;;;4917170;29;20448;-81
2022/01/11 19:32:59;;;;;;;0.30;0.30;;;2.30;99.90;;;;;;4916874;29;20504;-81
2022/01/11 19:35:26;;;;;;;0.50;0.50;;;2.20;99.90;;;;;;4916856;29;20463;-81
2022/01/11 19:37:53;;;;;;;0.30;0.30;;;2.20;99.90;;;;;;4916873;29;20491;-81
2022/01/11 19:40:21;;;;;;;0.47;0.33;;;2.10;99.90;;;;;;4916617;29;20447;-81
2022/01/11 19:42:49;;;;;;;0.40;0.40;;;2.10;99.90;;;;;;4916204;29;20880;-82
2022/01/11 19:45:16;;;;;;;0.30;0.20;;;2.10;99.90;;;;;;4917129;29;20872;-82
2022/01/11 19:47:44;;;;;;;0.30;0.30;;;2.00;99.90;;;;;;4916790;29;20448;-82
2022/01/11 19:50:13;;;;;;;0.50;0.50;;;1.90;99.90;;;;;;4916340;29;20953;-82
2022/01/11 19:52:40;;;;;;;0.30;0.30;;;1.90;99.90;;;;;;4916641;29;20456;-81
2022/01/11 19:55:08;;;;;;;0.30;0.20;;;1.90;99.90;;;;;;4916442;29;20444;-81
2022/01/11 19:57:35;;;;;;;0.30;0.20;;;1.80;99.90;;;;;;4916598;29;21011;-82
2022/01/11 20:00:02;;;;;;;0.30;0.20;;;1.90;99.90;;;;;;4916399;29;20807;-82
2022/01/11 20:02:28;;;;;;;0.50;0.50;;;2.00;99.90;;;;;;4916428;29;20833;-82
2022/01/11 20:04:56;;;;;;;0.40;0.40;;;2.10;99.90;;;;;;4916400;29;20467;-82
2022/01/11 20:07:23;;;;;;;0.40;0.40;;;2.10;99.90;;;;;;4916461;29;20479;-82
2022/01/11 20:09:50;;;;;;;0.47;0.47;;;2.10;99.90;;;;;;4916513;29;20440;-82
2022/01/11 20:12:16;;;;;;;0.40;0.40;;;2.00;99.90;;;;;;4916388;29;20510;-82
2022/01/11 20:14:43;;;;;;;0.30;0.20;;;2.00;99.90;;;;;;4918799;29;20888;-82
2022/01/11 20:17:10;;;;;;;0.30;0.27;;;2.00;99.90;;;;;;4919651;29;20455;-82
2022/01/11 20:19:37;;;;;;;0.30;0.30;;;2.00;99.90;;;;;;4919580;29;20422;-82
2022/01/11 20:27:10;;;;;;;0.40;0.40;;;2.10;99.90;;;;;;4919573;29;20448;-82
2022/01/11 20:27:39;;;;;;;0.87;0.87;;;2.10;99.90;;;;;;4919864;29;20835;-80
2022/01/11 20:30:10;;;;;;;0.30;0.30;;;2.10;99.90;;;;;;4919957;29;20446;-81
2022/01/11 20:32:38;;;;;;;0.30;0.30;;;2.00;99.90;;;;;;4919669;29;20512;-82
2022/01/11 20:35:06;;;;;;;0.47;0.47;;;1.90;99.90;;;;;;4919617;29;20468;-82
2022/01/11 20:37:34;;;;;;;0.30;0.30;;;1.90;99.90;;;;;;4919309;29;20480;-82
2022/01/11 20:40:02;;;;;;;0.33;0.33;;;1.80;99.90;;;;;;4919492;29;20460;-82
2022/01/11 20:42:34;;;;;;;0.30;0.30;;;1.60;99.90;;;;;;4919504;29;20452;-81
2022/01/11 20:45:01;;;;;;;0.30;0.27;;;1.50;99.90;;;;;;4919517;29;20911;-82
2022/01/11 20:47:31;;;;;;;0.37;0.37;;;1.40;99.90;;;;;;4919130;29;20948;-82
2022/01/11 20:50:11;;;;;;;0.40;0.40;;;1.30;99.90;;;;;;4919292;29;20456;-81
2022/01/11 20:52:49;;;;;;;0.30;0.30;;;1.30;99.90;;;;;;4919216;29;20443;-81
2022/01/11 20:55:16;;;;;;;0.30;0.30;;;1.20;99.90;;;;;;4919293;29;20816;-81
2022/01/11 20:57:47;;;;;;;0.30;0.30;;;1.10;99.90;;;;;;4919394;29;20483;-81
2022/01/11 21:00:17;;;;;;;0.30;0.30;;;1.10;99.90;;;;;;4919843;29;20455;-83
2022/01/11 21:02:44;;;;;;;0.40;0.33;;;1.00;99.90;;;;;;4919026;29;20452;-83
2022/01/11 21:05:11;;;;;;;0.67;0.40;;;0.90;99.90;;;;;;4918948;29;20447;-83
2022/01/11 21:07:45;;;;;;;0.30;0.30;;;0.90;99.90;;;;;;4918920;29;20467;-83
2022/01/11 21:10:13;;;;;;;0.30;0.30;;;0.90;99.90;;;;;;4919091;29;20436;-83
2022/01/11 21:12:40;;;;;;;0.73;0.73;;;0.80;99.90;;;;;;4918719;29;20496;-83
2022/01/11 21:15:10;;;;;;;0.30;0.30;;;0.80;99.90;;;;;;4918771;29;20423;-82
2022/01/11 21:20:21;;;;;;;0.30;0.30;;;0.70;99.90;;;;;;4918928;29;20412;-83
2022/01/11 21:22:51;;;;;;;0.30;0.30;;;0.60;99.90;;;;;;4919020;29;20445;-83
2022/01/11 21:25:23;;;;;;;0.30;0.30;;;0.50;99.90;;;;;;4918026;29;20455;-83
2022/01/11 21:27:50;;;;;;;1.03;1.03;;;0.50;99.90;;;;;;4918732;29;20441;-83
2022/01/11 21:30:16;;;;;;;0.30;0.20;;;0.50;99.90;;;;;;4918555;29;20456;-83
2022/01/11 21:32:43;;;;;;;0.30;0.30;;;0.50;99.90;;;;;;4918524;29;20463;-83
2022/01/11 21:35:11;;;;;;;0.40;0.40;;;0.40;99.90;;;;;;4918854;29;21055;-83
2022/01/11 21:37:38;;;;;;;0.40;0.40;;;0.40;99.90;;;;;;4918374;29;20435;-83
2022/01/11 21:40:08;;;;;;;0.30;0.30;;;0.40;99.90;;;;;;4918287;29;20777;-83
2022/01/11 21:42:35;;;;;;;0.50;0.50;;;0.30;99.90;;;;;;4918112;29;20448;-83
2022/01/11 21:45:02;;;;;;;0.30;0.30;;;0.30;99.90;;;;;;4918050;29;20438;-83
2022/01/11 21:47:29;;;;;;;0.30;0.30;;;0.20;99.90;;;;;;4918310;29;20463;-83
2022/01/11 21:49:55;;;;;;;0.30;0.30;;;0.20;99.90;;;;;;4917882;29;21019;-83
2022/01/11 21:52:22;;;;;;;0.30;0.30;;;0.10;99.90;;;;;;4918237;29;20452;-82
2022/01/11 21:54:51;;;;;;;0.40;0.30;;;0.00;99.90;;;;;;4917880;29;20439;-82
2022/01/11 21:57:20;;;;;;;0.63;0.63;;;0.00;99.90;;;;;;4918253;29;20460;-82
2022/01/11 21:59:47;;;;;;;0.30;0.30;;;-0.10;99.90;;;;;;4917741;29;20469;-82
2022/01/11 22:02:14;;;;;;;0.40;0.40;;;0.00;99.90;;;;;;4917956;29;20431;-82
2022/01/11 22:04:40;;;;;;;0.40;0.40;;;0.00;99.90;;;;;;4918131;29;20460;-82
2022/01/11 22:07:07;;;;;;;0.50;0.50;;;0.00;99.90;;;;;;4918065;29;20455;-82
2022/01/11 22:09:36;;;;;;;0.30;0.23;;;0.00;99.90;;;;;;4918088;29;20453;-82
2022/01/11 22:12:09;;;;;;;0.63;0.63;;;0.00;99.90;;;;;;4917529;29;20539;-82
2022/01/11 22:14:54;;;;;;;0.30;0.30;;;0.00;99.90;;;;;;4918400;29;20484;-82
2022/01/11 22:17:27;;;;;;;0.40;0.40;;;0.00;99.90;;;;;;4917914;29;20444;-82
2022/01/11 22:19:55;;;;;;;0.87;0.87;;;0.00;99.90;;;;;;4918011;29;20498;-82
2022/01/11 22:22:22;;;;;;;0.37;0.37;;;0.00;99.90;;;;;;4917403;29;20444;-82
2022/01/11 22:24:50;;;;;;;0.30;0.30;;;0.00;99.90;;;;;;4917334;29;20472;-82
2022/01/11 22:27:17;;;;;;;0.30;0.30;;;0.00;99.90;;;;;;4917716;29;20460;-83
2022/01/11 22:29:45;;;;;;;0.30;0.30;;;-0.10;99.90;;;;;;4917558;29;20456;-83
2022/01/11 22:32:13;;;;;;;0.40;0.40;;;0.00;99.90;;;;;;4917557;29;20530;-83
2022/01/11 22:34:40;;;;;;;0.50;0.50;;;-0.10;99.90;;;;;;4917537;29;20480;-83
2022/01/11 22:37:07;;;;;;;0.70;0.70;;;-0.10;99.90;;;;;;4917010;29;20915;-80
2022/01/11 22:39:35;;;;;;;0.40;0.40;;;-0.10;99.90;;;;;;4917392;29;20486;-80
2022/01/11 22:42:02;;;;;;;0.30;0.30;;;-0.20;99.90;;;;;;4918114;29;20555;-81
2022/01/11 22:44:29;;;;;;;0.30;0.30;;;-0.20;99.90;;;;;;4917037;29;20486;-83
2022/01/11 22:46:57;;;;;;;0.37;0.37;;;-0.30;99.90;;;;;;4917298;29;20463;-83
2022/01/11 22:49:23;;;;;;;0.40;0.40;;;-0.30;99.90;;;;;;4917345;29;20459;-83
2022/01/11 22:51:50;;;;;;;0.30;0.30;;;-0.30;99.90;;;;;;4917201;29;20426;-83
2022/01/11 22:54:17;;;;;;;0.37;0.37;;;-0.40;99.90;;;;;;4917261;29;20476;-84
2022/01/11 22:56:44;;;;;;;0.43;0.43;;;-0.40;99.90;;;;;;4917459;29;20456;-83
2022/01/11 22:59:10;;;;;;;0.50;0.50;;;-0.40;99.90;;;;;;4916942;29;20495;-83
2022/01/11 23:01:37;;;;;;;0.30;0.30;;;-0.50;99.90;;;;;;4917119;29;20440;-83
2022/01/11 23:04:06;;;;;;;1.03;1.03;;;-0.50;99.90;;;;;;4917195;29;20850;-81
2022/01/11 23:06:33;;;;;;;0.30;0.30;;;-0.50;99.90;;;;;;4917088;29;20440;-81
2022/01/11 23:09:05;;;;;;;0.30;0.30;;;-0.50;99.90;;;;;;4917171;29;20431;-81
2022/01/11 23:11:35;;;;;;;0.30;0.30;;;-0.40;99.90;;;;;;4916996;29;20460;-81
2022/01/11 23:16:47;;;;;;;0.30;0.30;;;-0.40;99.90;;;;;;4917276;29;20438;-81
2022/01/11 23:19:15;;;;;;;0.70;0.70;;;-0.40;99.90;;;;;;4916952;29;20491;-81
2022/01/11 23:21:43;;;;;;;0.30;0.30;;;-0.40;99.90;;;;;;4917020;29;20452;-81
2022/01/11 23:24:09;;;;;;;0.80;0.60;;;-0.40;99.90;;;;;;4916971;29;20483;-81
2022/01/11 23:26:36;;;;;;;0.40;0.33;;;-0.40;99.90;;;;;;4916713;29;20418;-81
2022/01/11 23:29:04;;;;;;;0.40;0.40;;;-0.40;99.90;;;;;;4916936;29;20456;-81
2022/01/11 23:31:31;;;;;;;0.50;0.50;;;-0.40;99.90;;;;;;4917208;29;20419;-81
2022/01/11 23:34:00;;;;;;;0.50;0.50;;;-0.40;99.90;;;;;;4916801;29;20455;-81
2022/01/11 23:36:32;;;;;;;0.30;0.30;;;-0.40;99.90;;;;;;4916821;29;20500;-81
2022/01/11 23:39:07;;;;;;;0.30;0.30;;;-0.50;99.90;;;;;;4917062;29;21049;-81
2022/01/11 23:41:45;;;;;;;0.30;0.30;;;-0.50;99.90;;;;;;4916907;29;20542;-81
2022/01/11 23:44:31;;;;;;;0.30;0.30;;;-0.50;99.90;;;;;;4916537;29;20931;-81
2022/01/11 23:46:59;;;;;;;0.30;0.30;;;-0.50;99.90;;;;;;4916847;29;20419;-81
2022/01/11 23:49:26;;;;;;;0.30;0.30;;;-0.50;99.90;;;;;;4918775;29;20455;-81
2022/01/11 23:51:54;;;;;;;0.30;0.30;;;-0.50;99.90;;;;;;4920291;29;20451;-83
2022/01/11 23:54:21;;;;;;;0.40;0.40;;;-0.50;99.90;;;;;;4920586;29;20446;-83
2022/01/11 23:56:49;;;;;;;0.30;0.30;;;-0.60;99.90;;;;;;4920113;29;20422;-83
2022/01/11 23:59:17;;;;;;;0.40;0.40;;;-0.60;99.90;;;;;;4920227;29;20845;-83
